sensor_id;sensor_type;location;lat;lon;timestamp;pressure;altitude;pressure_sealevel;temperature;humidity
20793;BME280;10556;-33.662;151.094;2024-03-02T00:04:30;99031.19;;;24.88;100.00
20793;BME280;10556;-33.662;151.094;2024-03-02T00:09:36;99057.25;;;24.65;100.00
20793;BME280;10556;-33.662;151.094;2024-03-02T00:14:39;99055.72;;;24.48;100.00
20793;BME280;10556;-33.662;151.094;2024-03-02T00:19:41;99037.25;;;24.57;100.00
20793;BME280;10556;-33.662;151.094;2024-03-02T00:24:46;99042.41;;;24.65;100.00
20793;BME280;10556;-33.662;151.094;2024-03-02T00:29:49;99038.44;;;24.55;100.00
20793;BME280;10556;-33.662;151.094;2024-03-02T00:34:52;99038.81;;;24.66;100.00
20793;BME280;10556;-33.662;151.094;2024-03-02T00:39:56;99042.53;;;24.72;100.00
20793;BME280;10556;-33.662;151.094;2024-03-02T00:44:59;99038.94;;;24.19;100.00
20793;BME280;10556;-33.662;151.094;2024-03-02T00:50:02;99043.63;;;23.93;100.00
20793;BME280;10556;-33.662;151.094;2024-03-02T00:55:08;99053.91;;;23.78;100.00
20793;BME280;10556;-33.662;151.094;2024-03-02T01:00:12;99058.88;;;23.49;100.00
20793;BME280;10556;-33.662;151.094;2024-03-02T01:05:15;99067.00;;;23.46;100.00
20793;BME280;10556;-33.662;151.094;2024-03-02T01:10:19;99074.44;;;23.41;100.00
20793;BME280;10556;-33.662;151.094;2024-03-02T01:15:22;99078.72;;;23.26;100.00
20793;BME280;10556;-33.662;151.094;2024-03-02T01:20:25;99080.97;;;23.04;100.00
20793;BME280;10556;-33.662;151.094;2024-03-02T01:25:30;99096.06;;;22.85;100.00
20793;BME280;10556;-33.662;151.094;2024-03-02T01:30:34;99097.84;;;22.84;100.00
20793;BME280;10556;-33.662;151.094;2024-03-02T01:35:38;99095.75;;;22.80;100.00
20793;BME280;10556;-33.662;151.094;2024-03-02T01:40:43;99104.19;;;22.90;100.00
20793;BME280;10556;-33.662;151.094;2024-03-02T01:45:46;99102.75;;;22.87;100.00
20793;BME280;10556;-33.662;151.094;2024-03-02T01:50:48;99105.81;;;22.91;100.00
20793;BME280;10556;-33.662;151.094;2024-03-02T01:55:55;99102.44;;;23.31;100.00
20793;BME280;10556;-33.662;151.094;2024-03-02T02:00:58;99091.03;;;23.32;100.00
20793;BME280;10556;-33.662;151.094;2024-03-02T02:06:00;99110.84;;;23.65;100.00
20793;BME280;10556;-33.662;151.094;2024-03-02T02:11:05;99118.66;;;23.73;100.00
20793;BME280;10556;-33.662;151.094;2024-03-02T02:16:09;99120.81;;;23.45;100.00
20793;BME280;10556;-33.662;151.094;2024-03-02T02:21:12;99123.06;;;23.24;100.00
20793;BME280;10556;-33.662;151.094;2024-03-02T02:26:17;99114.47;;;23.16;100.00
20793;BME280;10556;-33.662;151.094;2024-03-02T02:31:21;99114.13;;;23.19;100.00
20793;BME280;10556;-33.662;151.094;2024-03-02T02:36:23;99083.41;;;22.98;100.00
20793;BME280;10556;-33.662;151.094;2024-03-02T02:41:28;99091.84;;;23.08;100.00
20793;BME280;10556;-33.662;151.094;2024-03-02T02:46:32;99094.91;;;22.79;100.00
20793;BME280;10556;-33.662;151.094;2024-03-02T02:51:35;99095.59;;;22.97;100.00
20793;BME280;10556;-33.662;151.094;2024-03-02T02:56:40;99092.69;;;23.00;100.00
20793;BME280;10556;-33.662;151.094;2024-03-02T03:01:43;99101.44;;;23.08;100.00
20793;BME280;10556;-33.662;151.094;2024-03-02T03:06:46;99104.88;;;23.24;100.00
20793;BME280;10556;-33.662;151.094;2024-03-02T03:11:52;99091.38;;;23.21;100.00
20793;BME280;10556;-33.662;151.094;2024-03-02T03:16:55;99079.19;;;23.05;100.00
20793;BME280;10556;-33.662;151.094;2024-03-02T03:21:58;99065.69;;;23.18;100.00
20793;BME280;10556;-33.662;151.094;2024-03-02T03:27:04;99063.13;;;23.01;100.00
20793;BME280;10556;-33.662;151.094;2024-03-02T03:32:07;99058.91;;;22.92;100.00
20793;BME280;10556;-33.662;151.094;2024-03-02T03:37:11;99055.63;;;22.74;100.00
20793;BME280;10556;-33.662;151.094;2024-03-02T03:42:17;99053.53;;;22.78;100.00
20793;BME280;10556;-33.662;151.094;2024-03-02T03:47:20;99037.59;;;22.73;100.00
20793;BME280;10556;-33.662;151.094;2024-03-02T03:52:24;99020.00;;;22.50;100.00
20793;BME280;10556;-33.662;151.094;2024-03-02T03:57:29;99000.34;;;22.32;100.00
20793;BME280;10556;-33.662;151.094;2024-03-02T04:02:31;98979.56;;;22.40;100.00
20793;BME280;10556;-33.662;151.094;2024-03-02T04:07:35;98965.66;;;22.49;100.00
20793;BME280;10556;-33.662;151.094;2024-03-02T04:12:39;98976.81;;;22.41;100.00
20793;BME280;10556;-33.662;151.094;2024-03-02T04:17:42;98971.97;;;22.38;100.00
20793;BME280;10556;-33.662;151.094;2024-03-02T04:22:45;98976.50;;;22.60;100.00
20793;BME280;10556;-33.662;151.094;2024-03-02T04:27:49;98979.13;;;22.85;100.00
20793;BME280;10556;-33.662;151.094;2024-03-02T04:32:52;98989.50;;;22.93;100.00
20793;BME280;10556;-33.662;151.094;2024-03-02T04:37:56;98994.41;;;22.72;100.00
20793;BME280;10556;-33.662;151.094;2024-03-02T04:43:00;98988.03;;;22.66;100.00
20793;BME280;10556;-33.662;151.094;2024-03-02T04:48:05;98975.06;;;22.58;100.00
20793;BME280;10556;-33.662;151.094;2024-03-02T04:53:08;98977.03;;;22.80;100.00
20793;BME280;10556;-33.662;151.094;2024-03-02T04:58:15;98991.66;;;22.73;100.00
20793;BME280;10556;-33.662;151.094;2024-03-02T05:03:18;99005.25;;;22.67;100.00
20793;BME280;10556;-33.662;151.094;2024-03-02T05:08:21;99009.19;;;22.71;100.00
20793;BME280;10556;-33.662;151.094;2024-03-02T05:13:28;99002.19;;;22.96;100.00
20793;BME280;10556;-33.662;151.094;2024-03-02T05:18:31;99018.59;;;23.04;100.00
20793;BME280;10556;-33.662;151.094;2024-03-02T05:23:34;99036.97;;;22.95;100.00
20793;BME280;10556;-33.662;151.094;2024-03-02T05:28:40;99040.00;;;22.66;100.00
20793;BME280;10556;-33.662;151.094;2024-03-02T05:33:42;99043.59;;;22.89;100.00
20793;BME280;10556;-33.662;151.094;2024-03-02T05:38:45;99047.34;;;22.87;100.00
20793;BME280;10556;-33.662;151.094;2024-03-02T05:43:50;99073.97;;;22.89;100.00
20793;BME280;10556;-33.662;151.094;2024-03-02T05:48:52;99069.28;;;23.00;100.00
20793;BME280;10556;-33.662;151.094;2024-03-02T05:53:55;99083.06;;;22.93;100.00
20793;BME280;10556;-33.662;151.094;2024-03-02T05:59:01;99104.69;;;22.85;100.00
20793;BME280;10556;-33.662;151.094;2024-03-02T06:04:05;99110.13;;;22.58;100.00
20793;BME280;10556;-33.662;151.094;2024-03-02T06:09:08;99129.91;;;22.51;100.00
20793;BME280;10556;-33.662;151.094;2024-03-02T06:14:13;99121.81;;;22.54;100.00
20793;BME280;10556;-33.662;151.094;2024-03-02T06:19:16;99125.53;;;22.51;100.00
20793;BME280;10556;-33.662;151.094;2024-03-02T06:24:18;99132.84;;;22.56;100.00
20793;BME280;10556;-33.662;151.094;2024-03-02T06:29:23;99121.00;;;22.53;100.00
20793;BME280;10556;-33.662;151.094;2024-03-02T06:34:26;99138.38;;;22.53;100.00
20793;BME280;10556;-33.662;151.094;2024-03-02T06:39:28;99130.06;;;22.49;100.00
20793;BME280;10556;-33.662;151.094;2024-03-02T06:44:33;99134.25;;;22.42;100.00
20793;BME280;10556;-33.662;151.094;2024-03-02T06:49:36;99134.47;;;22.49;100.00
20793;BME280;10556;-33.662;151.094;2024-03-02T06:54:39;99134.59;;;22.47;100.00
20793;BME280;10556;-33.662;151.094;2024-03-02T06:59:43;99134.25;;;22.42;100.00
20793;BME280;10556;-33.662;151.094;2024-03-02T07:04:46;99145.44;;;22.35;100.00
20793;BME280;10556;-33.662;151.094;2024-03-02T07:09:49;99149.59;;;22.20;100.00
20793;BME280;10556;-33.662;151.094;2024-03-02T07:14:55;99144.81;;;22.07;100.00
20793;BME280;10556;-33.662;151.094;2024-03-02T07:19:58;99154.22;;;22.08;100.00
20793;BME280;10556;-33.662;151.094;2024-03-02T07:25:01;99169.44;;;22.03;100.00
20793;BME280;10556;-33.662;151.094;2024-03-02T07:30:06;99180.09;;;21.74;100.00
20793;BME280;10556;-33.662;151.094;2024-03-02T07:35:10;99185.84;;;21.42;100.00
20793;BME280;10556;-33.662;151.094;2024-03-02T07:40:14;99175.72;;;21.31;100.00
20793;BME280;10556;-33.662;151.094;2024-03-02T07:45:19;99187.09;;;21.20;100.00
20793;BME280;10556;-33.662;151.094;2024-03-02T07:50:21;99184.31;;;21.14;100.00
20793;BME280;10556;-33.662;151.094;2024-03-02T07:55:24;99195.91;;;21.10;100.00
20793;BME280;10556;-33.662;151.094;2024-03-02T08:00:29;99199.00;;;20.96;100.00
20793;BME280;10556;-33.662;151.094;2024-03-02T08:05:31;99201.03;;;20.92;100.00
20793;BME280;10556;-33.662;151.094;2024-03-02T08:10:34;99186.75;;;20.88;100.00
20793;BME280;10556;-33.662;151.094;2024-03-02T08:15:42;99200.84;;;20.85;100.00
20793;BME280;10556;-33.662;151.094;2024-03-02T08:20:46;99188.88;;;20.75;100.00
20793;BME280;10556;-33.662;151.094;2024-03-02T08:25:50;99205.44;;;20.64;100.00
20793;BME280;10556;-33.662;151.094;2024-03-02T08:30:56;99207.25;;;20.54;100.00
20793;BME280;10556;-33.662;151.094;2024-03-02T08:35:58;99210.16;;;20.41;100.00
20793;BME280;10556;-33.662;151.094;2024-03-02T08:41:01;99216.72;;;20.36;100.00
20793;BME280;10556;-33.662;151.094;2024-03-02T08:46:06;99218.91;;;20.40;100.00
20793;BME280;10556;-33.662;151.094;2024-03-02T08:51:10;99230.72;;;20.53;100.00
20793;BME280;10556;-33.662;151.094;2024-03-02T08:56:12;99237.06;;;20.58;100.00
20793;BME280;10556;-33.662;151.094;2024-03-02T09:01:17;99231.75;;;20.60;100.00
20793;BME280;10556;-33.662;151.094;2024-03-02T09:06:20;99241.16;;;20.61;100.00
20793;BME280;10556;-33.662;151.094;2024-03-02T09:11:23;99252.47;;;20.60;100.00
20793;BME280;10556;-33.662;151.094;2024-03-02T09:16:28;99265.00;;;20.64;100.00
20793;BME280;10556;-33.662;151.094;2024-03-02T09:21:31;99276.72;;;20.59;100.00
20793;BME280;10556;-33.662;151.094;2024-03-02T09:26:36;99280.66;;;20.63;100.00
20793;BME280;10556;-33.662;151.094;2024-03-02T09:31:43;99273.88;;;20.62;100.00
20793;BME280;10556;-33.662;151.094;2024-03-02T09:36:46;99276.22;;;20.55;100.00
20793;BME280;10556;-33.662;151.094;2024-03-02T09:41:51;99296.78;;;20.57;100.00
20793;BME280;10556;-33.662;151.094;2024-03-02T09:46:57;99289.97;;;20.56;100.00
20793;BME280;10556;-33.662;151.094;2024-03-02T09:52:00;99302.91;;;20.56;100.00
20793;BME280;10556;-33.662;151.094;2024-03-02T09:57:03;99305.50;;;20.56;100.00
20793;BME280;10556;-33.662;151.094;2024-03-02T10:02:09;99317.50;;;20.57;100.00
20793;BME280;10556;-33.662;151.094;2024-03-02T10:07:14;99321.34;;;20.53;100.00
20793;BME280;10556;-33.662;151.094;2024-03-02T10:12:17;99342.72;;;20.55;100.00
20793;BME280;10556;-33.662;151.094;2024-03-02T10:17:22;99347.75;;;20.56;100.00
20793;BME280;10556;-33.662;151.094;2024-03-02T10:22:25;99354.56;;;20.57;100.00
20793;BME280;10556;-33.662;151.094;2024-03-02T10:27:28;99356.75;;;20.52;100.00
20793;BME280;10556;-33.662;151.094;2024-03-02T10:32:34;99357.72;;;20.51;100.00
20793;BME280;10556;-33.662;151.094;2024-03-02T10:37:37;99348.72;;;20.45;100.00
20793;BME280;10556;-33.662;151.094;2024-03-02T10:42:39;99358.13;;;20.47;100.00
20793;BME280;10556;-33.662;151.094;2024-03-02T10:47:47;99366.97;;;20.44;100.00
20793;BME280;10556;-33.662;151.094;2024-03-02T10:52:50;99361.94;;;20.52;100.00
20793;BME280;10556;-33.662;151.094;2024-03-02T10:57:54;99359.38;;;20.42;100.00
20793;BME280;10556;-33.662;151.094;2024-03-02T11:03:05;99368.50;;;20.37;100.00
20793;BME280;10556;-33.662;151.094;2024-03-02T11:08:11;99370.41;;;20.35;100.00
20793;BME280;10556;-33.662;151.094;2024-03-02T11:13:15;99370.91;;;20.29;100.00
20793;BME280;10556;-33.662;151.094;2024-03-02T11:18:21;99369.75;;;20.33;100.00
20793;BME280;10556;-33.662;151.094;2024-03-02T11:23:33;99373.81;;;20.35;100.00
20793;BME280;10556;-33.662;151.094;2024-03-02T11:28:36;99375.44;;;20.36;100.00
20793;BME280;10556;-33.662;151.094;2024-03-02T11:33:41;99374.63;;;20.36;100.00
20793;BME280;10556;-33.662;151.094;2024-03-02T11:38:44;99360.03;;;20.35;100.00
20793;BME280;10556;-33.662;151.094;2024-03-02T11:43:47;99362.91;;;20.22;100.00
20793;BME280;10556;-33.662;151.094;2024-03-02T11:48:52;99378.16;;;20.06;100.00
20793;BME280;10556;-33.662;151.094;2024-03-02T11:53:57;99376.38;;;20.07;100.00
20793;BME280;10556;-33.662;151.094;2024-03-02T11:59:02;99361.97;;;19.94;100.00
20793;BME280;10556;-33.662;151.094;2024-03-02T12:04:08;99359.63;;;19.82;100.00
20793;BME280;10556;-33.662;151.094;2024-03-02T12:09:13;99353.88;;;19.69;100.00
20793;BME280;10556;-33.662;151.094;2024-03-02T12:14:15;99356.06;;;19.73;100.00
20793;BME280;10556;-33.662;151.094;2024-03-02T12:19:21;99354.19;;;19.75;100.00
20793;BME280;10556;-33.662;151.094;2024-03-02T12:24:24;99355.78;;;19.76;100.00
20793;BME280;10556;-33.662;151.094;2024-03-02T12:29:27;99343.41;;;19.70;100.00
20793;BME280;10556;-33.662;151.094;2024-03-02T12:34:32;99339.19;;;19.59;100.00
20793;BME280;10556;-33.662;151.094;2024-03-02T12:39:34;99349.34;;;19.42;100.00
20793;BME280;10556;-33.662;151.094;2024-03-02T12:44:37;99348.34;;;19.43;100.00
20793;BME280;10556;-33.662;151.094;2024-03-02T12:49:41;99341.34;;;19.45;100.00
20793;BME280;10556;-33.662;151.094;2024-03-02T12:54:44;99333.28;;;19.48;100.00
20793;BME280;10556;-33.662;151.094;2024-03-02T12:59:49;99336.72;;;19.68;100.00
20793;BME280;10556;-33.662;151.094;2024-03-02T13:04:56;99329.28;;;19.84;100.00
20793;BME280;10556;-33.662;151.094;2024-03-02T13:10:00;99322.75;;;19.89;100.00
20793;BME280;10556;-33.662;151.094;2024-03-02T13:15:04;99316.34;;;19.93;100.00
20793;BME280;10556;-33.662;151.094;2024-03-02T13:20:09;99316.06;;;19.96;100.00
20793;BME280;10556;-33.662;151.094;2024-03-02T13:25:12;99313.88;;;20.01;100.00
20793;BME280;10556;-33.662;151.094;2024-03-02T13:30:15;99308.56;;;20.03;100.00
20793;BME280;10556;-33.662;151.094;2024-03-02T13:35:19;99309.94;;;19.97;100.00
20793;BME280;10556;-33.662;151.094;2024-03-02T13:40:22;99301.75;;;19.92;100.00
20793;BME280;10556;-33.662;151.094;2024-03-02T13:45:25;99291.28;;;19.84;100.00
20793;BME280;10556;-33.662;151.094;2024-03-02T13:50:29;99290.19;;;19.68;100.00
20793;BME280;10556;-33.662;151.094;2024-03-02T13:55:32;99287.34;;;19.61;100.00
20793;BME280;10556;-33.662;151.094;2024-03-02T14:00:35;99282.72;;;19.55;100.00
20793;BME280;10556;-33.662;151.094;2024-03-02T14:05:39;99277.25;;;19.48;100.00
20793;BME280;10556;-33.662;151.094;2024-03-02T14:10:42;99272.38;;;19.45;100.00
20793;BME280;10556;-33.662;151.094;2024-03-02T14:15:45;99271.38;;;19.37;100.00
20793;BME280;10556;-33.662;151.094;2024-03-02T14:20:50;99265.50;;;19.25;100.00
20793;BME280;10556;-33.662;151.094;2024-03-02T14:25:52;99251.28;;;19.00;100.00
20793;BME280;10556;-33.662;151.094;2024-03-02T14:30:55;99241.34;;;18.86;100.00
20793;BME280;10556;-33.662;151.094;2024-03-02T14:36:00;99239.25;;;18.70;100.00
20793;BME280;10556;-33.662;151.094;2024-03-02T14:41:02;99233.53;;;18.67;100.00
20793;BME280;10556;-33.662;151.094;2024-03-02T14:46:05;99215.97;;;18.61;100.00
20793;BME280;10556;-33.662;151.094;2024-03-02T14:51:10;99220.47;;;18.59;100.00
20793;BME280;10556;-33.662;151.094;2024-03-02T14:56:13;99209.47;;;18.66;100.00
20793;BME280;10556;-33.662;151.094;2024-03-02T15:01:15;99205.44;;;18.73;100.00
20793;BME280;10556;-33.662;151.094;2024-03-02T15:06:20;99206.56;;;19.00;100.00
20793;BME280;10556;-33.662;151.094;2024-03-02T15:11:22;99196.56;;;19.26;100.00
20793;BME280;10556;-33.662;151.094;2024-03-02T15:16:25;99199.97;;;19.36;100.00
20793;BME280;10556;-33.662;151.094;2024-03-02T15:21:30;99194.25;;;19.42;100.00
20793;BME280;10556;-33.662;151.094;2024-03-02T15:26:33;99191.78;;;19.40;100.00
20793;BME280;10556;-33.662;151.094;2024-03-02T15:31:35;99185.81;;;19.40;100.00
20793;BME280;10556;-33.662;151.094;2024-03-02T15:36:40;99176.00;;;19.43;100.00
20793;BME280;10556;-33.662;151.094;2024-03-02T15:41:44;99175.78;;;19.46;100.00
20793;BME280;10556;-33.662;151.094;2024-03-02T15:46:47;99170.63;;;19.46;100.00
20793;BME280;10556;-33.662;151.094;2024-03-02T15:51:51;99166.50;;;19.44;100.00
20793;BME280;10556;-33.662;151.094;2024-03-02T15:56:54;99156.16;;;19.34;100.00
20793;BME280;10556;-33.662;151.094;2024-03-02T16:01:57;99139.16;;;19.12;100.00
20793;BME280;10556;-33.662;151.094;2024-03-02T16:07:02;99133.97;;;18.84;100.00
20793;BME280;10556;-33.662;151.094;2024-03-02T16:12:05;99131.41;;;18.84;100.00
20793;BME280;10556;-33.662;151.094;2024-03-02T16:17:08;99122.97;;;18.91;100.00
20793;BME280;10556;-33.662;151.094;2024-03-02T16:22:12;99120.13;;;19.04;100.00
20793;BME280;10556;-33.662;151.094;2024-03-02T16:27:15;99122.44;;;18.97;100.00
20793;BME280;10556;-33.662;151.094;2024-03-02T16:32:18;99107.88;;;18.77;100.00
20793;BME280;10556;-33.662;151.094;2024-03-02T16:37:22;99094.41;;;18.64;100.00
20793;BME280;10556;-33.662;151.094;2024-03-02T16:42:25;99084.16;;;18.43;100.00
20793;BME280;10556;-33.662;151.094;2024-03-02T16:47:27;99081.94;;;18.29;100.00
20793;BME280;10556;-33.662;151.094;2024-03-02T16:52:32;99091.38;;;18.09;100.00
20793;BME280;10556;-33.662;151.094;2024-03-02T16:57:35;99092.94;;;18.21;100.00
20793;BME280;10556;-33.662;151.094;2024-03-02T17:02:38;99087.16;;;18.48;100.00
20793;BME280;10556;-33.662;151.094;2024-03-02T17:07:42;99080.19;;;18.39;100.00
20793;BME280;10556;-33.662;151.094;2024-03-02T17:12:45;99065.00;;;18.46;100.00
20793;BME280;10556;-33.662;151.094;2024-03-02T17:17:48;99053.69;;;18.27;100.00
20793;BME280;10556;-33.662;151.094;2024-03-02T17:22:52;99047.59;;;18.38;100.00
20793;BME280;10556;-33.662;151.094;2024-03-02T17:33:14;99058.56;;;18.21;100.00
20793;BME280;10556;-33.662;151.094;2024-03-02T17:38:19;99065.44;;;18.51;100.00
20793;BME280;10556;-33.662;151.094;2024-03-02T17:43:22;99071.38;;;18.51;100.00
20793;BME280;10556;-33.662;151.094;2024-03-02T17:48:25;99066.06;;;18.34;100.00
20793;BME280;10556;-33.662;151.094;2024-03-02T17:53:30;99075.50;;;18.14;100.00
20793;BME280;10556;-33.662;151.094;2024-03-02T17:58:32;99072.84;;;17.95;100.00
20793;BME280;10556;-33.662;151.094;2024-03-02T18:03:35;99076.19;;;17.76;100.00
20793;BME280;10556;-33.662;151.094;2024-03-02T18:08:40;99066.69;;;17.76;100.00
20793;BME280;10556;-33.662;151.094;2024-03-02T18:13:42;99075.75;;;17.71;100.00
20793;BME280;10556;-33.662;151.094;2024-03-02T18:18:47;99073.97;;;17.71;100.00
20793;BME280;10556;-33.662;151.094;2024-03-02T18:23:51;99061.84;;;17.83;100.00
20793;BME280;10556;-33.662;151.094;2024-03-02T18:28:54;99066.44;;;17.89;100.00
20793;BME280;10556;-33.662;151.094;2024-03-02T18:33:56;99071.59;;;17.89;100.00
20793;BME280;10556;-33.662;151.094;2024-03-02T18:39:01;99075.28;;;17.86;100.00
20793;BME280;10556;-33.662;151.094;2024-03-02T18:44:04;99074.84;;;17.81;100.00
20793;BME280;10556;-33.662;151.094;2024-03-02T18:49:07;99065.25;;;17.83;100.00
20793;BME280;10556;-33.662;151.094;2024-03-02T18:54:11;99081.09;;;17.79;100.00
20793;BME280;10556;-33.662;151.094;2024-03-02T18:59:14;99096.41;;;17.80;100.00
20793;BME280;10556;-33.662;151.094;2024-03-02T19:04:16;99083.66;;;17.79;100.00
20793;BME280;10556;-33.662;151.094;2024-03-02T19:09:21;99077.44;;;17.81;100.00
20793;BME280;10556;-33.662;151.094;2024-03-02T19:14:24;99077.50;;;17.70;100.00
20793;BME280;10556;-33.662;151.094;2024-03-02T19:19:27;99081.66;;;17.62;100.00
20793;BME280;10556;-33.662;151.094;2024-03-02T19:24:36;99080.25;;;17.58;100.00
20793;BME280;10556;-33.662;151.094;2024-03-02T19:29:38;99085.28;;;17.38;100.00
20793;BME280;10556;-33.662;151.094;2024-03-02T19:34:41;99085.63;;;17.24;100.00
20793;BME280;10556;-33.662;151.094;2024-03-02T19:39:47;99079.75;;;17.22;100.00
20793;BME280;10556;-33.662;151.094;2024-03-02T19:44:50;99082.16;;;17.14;100.00
20793;BME280;10556;-33.662;151.094;2024-03-02T19:49:53;99088.69;;;17.18;100.00
20793;BME280;10556;-33.662;151.094;2024-03-02T19:54:58;99083.91;;;17.14;100.00
20793;BME280;10556;-33.662;151.094;2024-03-02T20:00:00;99080.56;;;17.23;100.00
20793;BME280;10556;-33.662;151.094;2024-03-02T20:05:04;99088.25;;;17.34;100.00
20793;BME280;10556;-33.662;151.094;2024-03-02T20:10:10;99089.25;;;17.42;100.00
20793;BME280;10556;-33.662;151.094;2024-03-02T20:15:12;99092.00;;;17.51;100.00
20793;BME280;10556;-33.662;151.094;2024-03-02T20:20:15;99095.97;;;17.75;100.00
20793;BME280;10556;-33.662;151.094;2024-03-02T20:25:21;99098.31;;;17.78;100.00
20793;BME280;10556;-33.662;151.094;2024-03-02T20:30:24;99100.63;;;17.81;100.00
20793;BME280;10556;-33.662;151.094;2024-03-02T20:35:27;99096.81;;;18.06;100.00
20793;BME280;10556;-33.662;151.094;2024-03-02T20:40:31;99102.50;;;18.10;100.00
20793;BME280;10556;-33.662;151.094;2024-03-02T20:45:34;99098.34;;;18.28;100.00
20793;BME280;10556;-33.662;151.094;2024-03-02T20:50:37;99102.69;;;18.58;100.00
20793;BME280;10556;-33.662;151.094;2024-03-02T20:55:42;99106.78;;;18.60;100.00
20793;BME280;10556;-33.662;151.094;2024-03-02T21:00:46;99098.38;;;18.78;100.00
20793;BME280;10556;-33.662;151.094;2024-03-02T21:05:49;99096.47;;;18.99;100.00
20793;BME280;10556;-33.662;151.094;2024-03-02T21:10:54;99086.69;;;18.93;100.00
20793;BME280;10556;-33.662;151.094;2024-03-02T21:15:57;99089.81;;;18.87;100.00
20793;BME280;10556;-33.662;151.094;2024-03-02T21:21:00;99090.22;;;19.01;100.00
20793;BME280;10556;-33.662;151.094;2024-03-02T21:26:05;99092.66;;;19.22;100.00
20793;BME280;10556;-33.662;151.094;2024-03-02T21:31:10;99085.00;;;19.59;100.00
20793;BME280;10556;-33.662;151.094;2024-03-02T21:36:16;99083.88;;;19.71;100.00
20793;BME280;10556;-33.662;151.094;2024-03-02T21:41:21;99080.06;;;19.75;100.00
20793;BME280;10556;-33.662;151.094;2024-03-02T21:46:24;99086.31;;;19.73;100.00
20793;BME280;10556;-33.662;151.094;2024-03-02T21:51:27;99086.75;;;19.68;100.00
20793;BME280;10556;-33.662;151.094;2024-03-02T21:56:32;99095.97;;;19.80;100.00
20793;BME280;10556;-33.662;151.094;2024-03-02T22:01:36;99082.50;;;20.14;100.00
20793;BME280;10556;-33.662;151.094;2024-03-02T22:06:39;99086.88;;;20.40;100.00
20793;BME280;10556;-33.662;151.094;2024-03-02T22:11:45;99083.59;;;20.66;100.00
20793;BME280;10556;-33.662;151.094;2024-03-02T22:16:49;99069.22;;;20.89;100.00
20793;BME280;10556;-33.662;151.094;2024-03-02T22:21:52;99081.47;;;21.40;100.00
20793;BME280;10556;-33.662;151.094;2024-03-02T22:26:57;99073.25;;;21.70;100.00
20793;BME280;10556;-33.662;151.094;2024-03-02T22:32:00;99070.75;;;21.87;100.00
20793;BME280;10556;-33.662;151.094;2024-03-02T22:37:03;99069.94;;;22.20;100.00
20793;BME280;10556;-33.662;151.094;2024-03-02T22:42:08;99068.56;;;22.08;100.00
20793;BME280;10556;-33.662;151.094;2024-03-02T22:47:11;99073.00;;;22.15;100.00
20793;BME280;10556;-33.662;151.094;2024-03-02T22:52:13;99067.97;;;22.88;100.00
20793;BME280;10556;-33.662;151.094;2024-03-02T22:57:18;99074.44;;;22.68;100.00
20793;BME280;10556;-33.662;151.094;2024-03-02T23:02:21;99062.47;;;23.95;100.00
20793;BME280;10556;-33.662;151.094;2024-03-02T23:07:24;99069.19;;;24.28;100.00
20793;BME280;10556;-33.662;151.094;2024-03-02T23:12:29;99060.22;;;24.31;100.00
20793;BME280;10556;-33.662;151.094;2024-03-02T23:17:31;99062.06;;;24.14;100.00
20793;BME280;10556;-33.662;151.094;2024-03-02T23:22:34;99053.97;;;23.62;100.00
20793;BME280;10556;-33.662;151.094;2024-03-02T23:27:40;99051.56;;;24.84;100.00
20793;BME280;10556;-33.662;151.094;2024-03-02T23:32:43;99043.72;;;26.03;100.00
20793;BME280;10556;-33.662;151.094;2024-03-02T23:37:45;99044.22;;;26.85;100.00
20793;BME280;10556;-33.662;151.094;2024-03-02T23:42:49;99052.84;;;27.07;100.00
20793;BME280;10556;-33.662;151.094;2024-03-02T23:47:52;99056.81;;;26.39;100.00
20793;BME280;10556;-33.662;151.094;2024-03-02T23:52:54;99058.06;;;25.92;100.00
20793;BME280;10556;-33.662;151.094;2024-03-02T23:57:57;99046.66;;;26.15;100.00
